Time;durP1;ratioP1;P1;durP2;ratioP2;P2;SDS_P1;SDS_P2;PMS_P1;PMS_P2;Temp;Humidity;BMP_temperature;BMP_pressure;BME280_temperature;BME280_humidity;BME280_pressure;Samples;Min_cycle;Max_cycle;Signal;HPM_P1;HPM_P2
2023/08/19 00:00:34;;;;;;;11.93;9.30;;;;;;;25.14;61.35;99235.75;4404825;32;33902;-88
2023/08/19 00:03:02;;;;;;;11.55;8.75;;;;;;;24.94;62.13;99243.72;4417211;32;34729;-88
2023/08/19 00:05:30;;;;;;;12.20;8.93;;;;;;;25.00;62.15;99240.78;4406230;32;33783;-88
2023/08/19 00:07:57;;;;;;;12.75;8.43;;;;;;;25.11;61.86;99243.00;4407054;32;33957;-88
2023/08/19 00:10:25;;;;;;;9.85;8.43;;;;;;;25.07;61.79;99236.94;4405579;32;32360;-88
2023/08/19 00:12:52;;;;;;;11.05;9.43;;;;;;;25.09;61.78;99245.69;4406590;32;34014;-88
2023/08/19 00:15:21;;;;;;;12.98;9.20;;;;;;;25.07;61.86;99244.88;4417999;32;32760;-89
2023/08/19 00:17:49;;;;;;;12.27;8.77;;;;;;;25.11;61.77;99243.84;4418516;32;32789;-88
2023/08/19 00:20:16;;;;;;;11.93;9.30;;;;;;;25.09;61.98;99239.53;4407903;32;33810;-88
2023/08/19 00:22:44;;;;;;;12.45;8.60;;;;;;;25.11;62.09;99241.19;4407968;32;33402;-88
2023/08/19 00:25:12;;;;;;;12.63;9.45;;;;;;;25.13;62.04;99242.00;4407827;32;33158;-88
2023/08/19 00:27:39;;;;;;;12.77;9.20;;;;;;;25.12;61.91;99239.44;4410334;32;33043;-88
2023/08/19 00:30:08;;;;;;;11.77;9.55;;;;;;;25.05;62.07;99248.56;4404764;32;33021;-88
2023/08/19 00:32:35;;;;;;;9.88;8.88;;;;;;;24.93;62.38;99245.53;4406331;32;33985;-88
2023/08/19 00:35:03;;;;;;;10.57;9.23;;;;;;;24.98;62.17;99243.50;4417499;32;32719;-90
2023/08/19 00:37:32;;;;;;;9.98;8.60;;;;;;;24.94;62.35;99243.72;4417698;32;33408;-88
2023/08/19 00:40:00;;;;;;;10.68;8.85;;;;;;;24.87;62.58;99244.94;4406573;32;34815;-88
2023/08/19 00:42:28;;;;;;;11.70;9.40;;;;;;;24.85;62.69;99241.47;4417619;32;35243;-88
2023/08/19 00:44:56;;;;;;;13.02;9.07;;;;;;;24.90;62.26;99234.19;4417755;32;33418;-88
2023/08/19 00:47:24;;;;;;;10.70;8.77;;;;;;;24.89;62.42;99238.63;4407632;32;34346;-88
2023/08/19 00:49:52;;;;;;;12.63;9.65;;;;;;;24.72;62.99;99239.37;4421403;32;33842;-88
2023/08/19 00:52:19;;;;;;;11.55;9.63;;;;;;;24.62;63.56;99240.69;4394840;32;33941;-88
2023/08/19 00:54:47;;;;;;;13.07;9.18;;;;;;;24.62;63.69;99243.34;4420251;32;33890;-88
2023/08/19 00:57:15;;;;;;;12.75;9.15;;;;;;;24.48;64.23;99245.75;4411858;32;32036;-88
2023/08/19 00:59:43;;;;;;;12.13;9.73;;;;;;;24.54;64.16;99237.50;4417633;32;34656;-88
2023/08/19 01:02:11;;;;;;;11.30;10.10;;;;;;;24.63;63.78;99244.22;4404778;32;34466;-88
2023/08/19 01:04:38;;;;;;;14.65;9.77;;;;;;;24.58;63.94;99241.75;4406356;32;33657;-88
2023/08/19 01:07:09;;;;;;;11.23;10.13;;;;;;;24.58;63.84;99244.41;4404682;32;33340;-88
2023/08/19 01:10:18;;;;;;;13.98;9.32;;;;;;;24.55;63.94;99247.22;4406031;32;33936;-88
2023/08/19 01:12:53;;;;;;;11.80;10.02;;;;;;;24.67;63.57;99246.66;4360987;32;33386;-88
2023/08/19 01:15:23;;;;;;;11.48;9.20;;;;;;;24.60;63.69;99242.56;4402694;32;33552;-88
2023/08/19 01:17:52;;;;;;;13.13;9.52;;;;;;;24.53;63.91;99249.06;4417192;32;34096;-88
2023/08/19 01:20:21;;;;;;;12.68;9.77;;;;;;;24.50;63.89;99243.88;4407457;32;34602;-88
2023/08/19 01:22:57;;;;;;;11.07;9.98;;;;;;;24.43;64.38;99255.66;4420116;32;33933;-88
2023/08/19 01:25:25;;;;;;;10.98;9.80;;;;;;;24.47;64.53;99257.25;4407105;32;32970;-88
2023/08/19 01:27:53;;;;;;;11.10;9.27;;;;;;;24.45;64.65;99245.87;4404361;32;33793;-87
2023/08/19 01:30:22;;;;;;;12.88;10.05;;;;;;;24.39;64.86;99254.06;4392885;32;32754;-88
2023/08/19 01:32:49;;;;;;;10.85;9.68;;;;;;;24.36;65.15;99246.22;4404147;32;32877;-88
2023/08/19 01:35:17;;;;;;;11.27;9.85;;;;;;;24.34;65.28;99250.72;4404491;32;34047;-87
2023/08/19 01:38:03;;;;;;;14.50;9.90;;;;;;;24.43;65.08;99255.66;4401714;32;32886;-87
2023/08/19 01:40:32;;;;;;;13.32;10.02;;;;;;;24.49;65.17;99260.72;4402181;32;33965;-88
2023/08/19 01:43:00;;;;;;;12.85;10.38;;;;;;;24.40;65.36;99261.13;4389449;32;34139;-87
2023/08/19 01:45:27;;;;;;;12.02;10.05;;;;;;;24.17;66.04;99267.31;4389266;32;33107;-88
2023/08/19 01:47:55;;;;;;;13.23;10.38;;;;;;;24.30;65.81;99265.03;4403427;32;32085;-87
2023/08/19 01:50:23;;;;;;;11.85;9.85;;;;;;;24.30;65.96;99272.97;4407286;32;33205;-88
2023/08/19 01:52:50;;;;;;;12.93;9.43;;;;;;;24.21;66.34;99267.16;4407441;32;34114;-87
2023/08/19 01:55:18;;;;;;;12.18;10.32;;;;;;;24.31;66.00;99272.91;4419623;32;33567;-87
2023/08/19 01:57:46;;;;;;;11.82;10.00;;;;;;;24.23;66.12;99270.56;4401466;32;33019;-88
2023/08/19 02:00:14;;;;;;;10.90;9.55;;;;;;;24.30;65.87;99270.34;4390402;32;33938;-88
2023/08/19 02:02:41;;;;;;;11.52;9.05;;;;;;;24.40;65.02;99271.72;4389225;32;33799;-88
2023/08/19 02:05:12;;;;;;;10.35;9.25;;;;;;;24.30;65.24;99260.59;4400967;32;33876;-87
2023/08/19 02:07:40;;;;;;;10.30;9.23;;;;;;;24.30;65.12;99265.91;4394067;32;32093;-87
2023/08/19 02:10:08;;;;;;;11.27;9.38;;;;;;;24.52;64.16;99248.19;4420739;32;34449;-87
2023/08/19 02:12:36;;;;;;;10.63;9.15;;;;;;;24.36;64.53;99264.75;4419389;32;33927;-87
2023/08/19 02:15:04;;;;;;;13.43;9.50;;;;;;;24.34;64.54;99256.03;4419900;32;33687;-88
2023/08/19 02:17:32;;;;;;;12.93;9.57;;;;;;;24.32;64.62;99268.47;4420587;32;32715;-88
2023/08/19 02:20:00;;;;;;;10.90;9.30;;;;;;;24.19;64.92;99268.97;4394242;32;33146;-87
2023/08/19 02:22:28;;;;;;;13.85;9.23;;;;;;;24.08;65.18;99267.69;4419316;32;33725;-88
2023/08/19 02:24:55;;;;;;;11.52;9.75;;;;;;;24.08;65.31;99260.63;4403716;32;34107;-87
2023/08/19 02:27:24;;;;;;;11.77;8.93;;;;;;;24.09;65.24;99256.19;4406874;32;34414;-87
2023/08/19 02:29:52;;;;;;;10.88;9.07;;;;;;;24.18;64.85;99253.16;4405630;32;33856;-87
2023/08/19 02:32:19;;;;;;;11.48;9.25;;;;;;;24.23;64.64;99259.13;4418744;32;34163;-87
2023/08/19 02:34:47;;;;;;;10.02;9.02;;;;;;;24.18;64.76;99261.13;4421154;32;33055;-87
2023/08/19 02:37:14;;;;;;;11.95;9.15;;;;;;;24.04;65.31;99254.56;4421107;32;32855;-87
2023/08/19 02:39:42;;;;;;;11.80;9.48;;;;;;;24.00;65.42;99252.13;4421335;32;34231;-88
2023/08/19 02:42:15;;;;;;;12.00;9.35;;;;;;;24.10;64.97;99252.63;4408504;32;34477;-89
2023/08/19 02:44:43;;;;;;;9.90;8.40;;;;;;;24.01;65.34;99243.25;4416517;32;33598;-88
2023/08/19 02:47:11;;;;;;;9.95;8.82;;;;;;;24.00;65.49;99245.03;4407144;32;33362;-88
2023/08/19 02:49:38;;;;;;;13.07;9.82;;;;;;;24.10;64.87;99247.31;4406914;32;34326;-88
2023/08/19 02:52:06;;;;;;;12.55;9.23;;;;;;;24.00;65.07;99237.09;4418526;32;34912;-87
2023/08/19 02:54:34;;;;;;;10.82;8.60;;;;;;;23.98;65.08;99238.06;4405540;32;33325;-88
2023/08/19 02:57:02;;;;;;;10.57;9.05;;;;;;;23.93;65.25;99221.53;4405302;32;32807;-87
2023/08/19 02:59:29;;;;;;;9.35;8.32;;;;;;;23.81;65.57;99220.22;4406771;32;33926;-87
2023/08/19 03:01:57;;;;;;;11.55;9.00;;;;;;;23.93;64.92;99218.88;4418384;32;33392;-87
2023/08/19 03:04:24;;;;;;;12.40;9.40;;;;;;;24.00;64.60;99221.19;4406820;32;34562;-87
2023/08/19 03:06:52;;;;;;;12.65;9.32;;;;;;;23.95;64.58;99223.19;4420664;32;34093;-87
2023/08/19 03:09:20;;;;;;;13.07;9.32;;;;;;;23.93;64.53;99214.44;4421532;32;33864;-88
2023/08/19 03:11:47;;;;;;;10.77;9.68;;;;;;;23.76;65.08;99214.28;4408063;32;33768;-87
2023/08/19 03:14:15;;;;;;;10.45;8.70;;;;;;;23.77;65.17;99211.56;4407704;32;33220;-88
2023/08/19 03:16:43;;;;;;;12.20;9.25;;;;;;;23.78;65.11;99221.22;4417941;32;33183;-87
2023/08/19 03:19:10;;;;;;;11.00;9.13;;;;;;;23.76;65.10;99217.78;4418300;32;34731;-87
2023/08/19 03:21:38;;;;;;;11.07;9.60;;;;;;;23.70;65.03;99215.37;4407159;32;34448;-87
2023/08/19 03:24:06;;;;;;;11.63;9.02;;;;;;;23.74;64.99;99234.62;4405725;32;34007;-88
2023/08/19 03:26:33;;;;;;;10.57;9.43;;;;;;;23.67;65.41;99236.66;4420443;32;32878;-87
2023/08/19 03:29:01;;;;;;;10.55;9.45;;;;;;;23.73;65.21;99239.06;4421705;32;33921;-88
2023/08/19 03:31:29;;;;;;;12.02;9.75;;;;;;;23.73;65.29;99244.38;4422016;32;34839;-87
2023/08/19 03:33:57;;;;;;;11.65;9.52;;;;;;;23.74;65.23;99248.72;4408190;32;33485;-87
2023/08/19 03:36:25;;;;;;;11.43;9.85;;;;;;;23.75;65.05;99241.66;4411522;32;32486;-87
2023/08/19 03:38:52;;;;;;;11.25;10.05;;;;;;;23.73;65.05;99249.66;4417325;32;33688;-88
2023/08/19 03:41:20;;;;;;;12.93;10.68;;;;;;;23.65;65.80;99234.97;4392855;32;34286;-87
2023/08/19 03:43:47;;;;;;;13.38;9.73;;;;;;;23.38;67.20;99239.56;4392948;32;33882;-87
2023/08/19 03:46:15;;;;;;;11.05;9.80;;;;;;;23.56;66.69;99254.72;4404959;32;32290;-87
2023/08/19 03:48:43;;;;;;;12.10;9.75;;;;;;;23.49;66.88;99253.25;4417663;32;33857;-87
2023/08/19 03:51:10;;;;;;;12.27;10.57;;;;;;;23.52;66.93;99245.16;4417687;32;34854;-87
2023/08/19 03:53:38;;;;;;;13.95;10.43;;;;;;;23.64;66.57;99255.31;4380449;32;32471;-88
2023/08/19 03:56:06;;;;;;;11.55;9.82;;;;;;;23.57;66.59;99259.09;4408090;32;33226;-87
2023/08/19 03:58:33;;;;;;;11.95;10.32;;;;;;;23.64;66.50;99259.69;4393221;32;33247;-87
2023/08/19 04:01:08;;;;;;;11.75;9.43;;;;;;;23.78;65.90;99263.56;4405298;32;34620;-88
2023/08/19 04:03:36;;;;;;;13.40;9.50;;;;;;;23.69;66.20;99263.94;4392983;32;34121;-88
2023/08/19 04:06:03;;;;;;;11.90;10.02;;;;;;;23.71;66.08;99269.16;4404595;32;33928;-88
2023/08/19 04:08:31;;;;;;;11.90;9.20;;;;;;;23.70;66.36;99265.66;4405091;32;34276;-88
2023/08/19 04:11:05;;;;;;;11.20;9.73;;;;;;;23.76;66.12;99276.03;4392394;32;32811;-88
2023/08/19 04:13:33;;;;;;;12.77;9.40;;;;;;;23.63;67.09;99269.44;4380391;32;33225;-88
2023/08/19 04:16:05;;;;;;;12.10;9.70;;;;;;;23.75;66.68;99276.94;4395024;32;33034;-87
2023/08/19 04:18:34;;;;;;;12.60;9.20;;;;;;;23.76;66.61;99278.66;4421794;32;34100;-88
2023/08/19 04:21:06;;;;;;;14.63;9.13;;;;;;;23.85;66.41;99273.94;4407863;32;34847;-88
2023/08/19 04:23:33;;;;;;;12.30;9.18;;;;;;;23.89;66.45;99280.81;4408004;32;33275;-88
2023/08/19 04:26:02;;;;;;;11.07;9.15;;;;;;;23.88;66.72;99279.09;4417469;32;33484;-88
2023/08/19 04:28:30;;;;;;;11.57;9.20;;;;;;;24.03;66.67;99289.09;4390558;32;33852;-87
2023/08/19 04:31:08;;;;;;;12.30;9.60;;;;;;;24.08;66.60;99288.88;4405290;32;34377;-88
2023/08/19 04:33:36;;;;;;;11.30;9.75;;;;;;;24.22;66.19;99278.59;4406558;32;34630;-88
2023/08/19 04:36:04;;;;;;;11.12;9.05;;;;;;;24.35;66.07;99274.50;4406236;32;33903;-88
2023/08/19 04:38:32;;;;;;;10.95;9.18;;;;;;;24.45;66.04;99275.03;4405240;32;32810;-88
2023/08/19 04:41:00;;;;;;;10.15;8.93;;;;;;;24.58;66.02;99264.75;4417971;32;34944;-88
2023/08/19 04:43:29;;;;;;;10.98;8.80;;;;;;;24.71;65.87;99261.50;4392976;32;33594;-88
2023/08/19 04:45:56;;;;;;;9.93;8.32;;;;;;;24.83;65.63;99264.56;4405884;32;32071;-88
2023/08/19 04:48:25;;;;;;;10.48;8.85;;;;;;;24.97;64.92;99267.47;4407813;32;33630;-88
2023/08/19 04:50:52;;;;;;;11.00;9.02;;;;;;;25.11;64.45;99275.69;4421026;32;33771;-88
2023/08/19 04:53:20;;;;;;;12.37;8.75;;;;;;;25.06;64.82;99282.09;4421545;32;34491;-88
2023/08/19 04:55:48;;;;;;;11.75;8.55;;;;;;;25.05;64.64;99275.94;4407438;32;34493;-88
2023/08/19 04:58:15;;;;;;;9.77;8.77;;;;;;;25.12;64.43;99276.56;4417302;32;34029;-88
2023/08/19 05:00:43;;;;;;;10.57;9.38;;;;;;;25.13;63.25;99279.13;4404635;32;33844;-88
2023/08/19 05:03:11;;;;;;;11.05;9.73;;;;;;;24.68;67.17;99282.00;4404667;32;32519;-88
2023/08/19 05:05:40;;;;;;;11.73;10.40;;;;;;;24.81;65.86;99291.13;4406192;32;33287;-88
2023/08/19 05:08:08;;;;;;;13.73;11.18;;;;;;;24.48;67.12;99296.97;4417704;32;33791;-88
2023/08/19 05:10:35;;;;;;;14.30;11.00;;;;;;;24.84;66.13;99306.91;4406254;32;34121;-88
2023/08/19 05:13:03;;;;;;;11.32;10.02;;;;;;;24.51;67.28;99306.59;4406786;32;34710;-88
2023/08/19 05:15:30;;;;;;;11.35;9.95;;;;;;;24.93;65.73;99313.63;4404689;32;32262;-88
2023/08/19 05:17:58;;;;;;;11.45;10.25;;;;;;;24.96;65.70;99314.34;4417383;32;33457;-88
2023/08/19 05:20:26;;;;;;;16.37;10.25;;;;;;;24.90;65.83;99313.75;4406132;32;34682;-88
2023/08/19 05:22:53;;;;;;;11.30;10.05;;;;;;;25.13;65.32;99323.37;4419395;32;33890;-88
2023/08/19 05:25:21;;;;;;;11.65;10.45;;;;;;;25.15;65.69;99322.37;4419370;32;33226;-88
2023/08/19 05:27:48;;;;;;;10.93;9.70;;;;;;;25.32;64.51;99336.69;4404381;32;33576;-88
2023/08/19 05:30:16;;;;;;;10.10;9.00;;;;;;;25.51;64.06;99334.06;4404252;32;33108;-88
2023/08/19 05:32:44;;;;;;;10.68;8.80;;;;;;;25.44;65.28;99339.63;4404607;32;32823;-88
2023/08/19 05:35:11;;;;;;;10.82;8.95;;;;;;;25.64;64.74;99340.53;4419133;32;32465;-88
2023/08/19 05:37:39;;;;;;;11.43;8.95;;;;;;;25.67;64.83;99341.25;4419578;32;33758;-88
2023/08/19 05:40:07;;;;;;;11.52;9.00;;;;;;;25.48;65.41;99345.69;4421148;32;34906;-88
2023/08/19 05:42:35;;;;;;;10.35;8.75;;;;;;;25.56;65.31;99346.19;4407012;32;32769;-88
2023/08/19 05:45:02;;;;;;;11.82;8.50;;;;;;;25.53;65.39;99361.37;4404285;32;33328;-88
2023/08/19 05:47:30;;;;;;;9.77;8.50;;;;;;;25.54;65.31;99366.66;4404181;32;33776;-88
2023/08/19 05:49:59;;;;;;;11.18;8.90;;;;;;;25.37;66.23;99371.84;4418984;32;33873;-88
2023/08/19 05:52:26;;;;;;;10.23;8.45;;;;;;;25.37;66.30;99370.03;4404035;32;32748;-87
2023/08/19 05:54:54;;;;;;;12.07;9.57;;;;;;;25.41;66.46;99390.22;4416590;32;32788;-88
2023/08/19 05:57:21;;;;;;;11.60;9.60;;;;;;;25.46;66.54;99387.38;4405610;32;33169;-87
2023/08/19 05:59:49;;;;;;;12.23;10.77;;;;;;;25.48;63.34;99402.28;4416981;32;34034;-89
2023/08/19 06:02:17;;;;;;;16.08;13.30;;;;;;;25.08;64.99;99412.88;4404691;32;33836;-87
2023/08/19 06:04:44;;;;;;;13.88;12.32;;;;;;;25.06;65.37;99415.59;4405553;32;33525;-87
2023/08/19 06:07:12;;;;;;;17.42;15.52;;;;;;;24.93;65.86;99443.59;4403592;32;33329;-88
2023/08/19 06:09:39;;;;;;;19.42;17.52;;;;;;;24.50;67.89;99432.91;4413454;32;33130;-88
2023/08/19 06:12:07;;;;;;;23.62;19.45;;;;;;;24.48;68.73;99440.06;4432101;32;33888;-90
2023/08/19 06:14:35;;;;;;;23.25;19.17;;;;;;;24.52;68.52;99433.72;4432066;32;34165;-89
2023/08/19 06:17:03;;;;;;;21.42;19.10;;;;;;;24.65;68.05;99447.34;4395515;32;33849;-92
2023/08/19 06:19:30;;;;;;;22.15;17.50;;;;;;;24.63;67.98;99449.22;4404188;32;33546;-90
2023/08/19 06:21:58;;;;;;;21.87;18.65;;;;;;;24.50;68.56;99462.06;4391364;32;33568;-90
2023/08/19 06:24:27;;;;;;;21.20;18.73;;;;;;;24.40;68.76;99460.72;4416625;32;33306;-90
2023/08/19 06:26:55;;;;;;;21.27;18.65;;;;;;;24.27;69.57;99468.22;4418811;32;33572;-90
2023/08/19 06:29:22;;;;;;;22.77;18.08;;;;;;;24.07;69.66;99478.72;4420684;32;33825;-90
2023/08/19 06:31:50;;;;;;;19.40;16.27;;;;;;;24.20;69.15;99487.94;4411987;32;33977;-90
2023/08/19 06:34:18;;;;;;;18.37;16.37;;;;;;;24.13;68.75;99497.06;4403497;32;34083;-89
2023/08/19 06:36:46;;;;;;;20.83;16.67;;;;;;;24.05;68.56;99504.41;4416153;32;34703;-90
2023/08/19 06:39:27;;;;;;;18.40;16.52;;;;;;;24.11;68.02;99509.47;4416131;32;34971;-89
2023/08/19 06:42:01;;;;;;;17.35;15.55;;;;;;;23.91;69.15;99519.94;4403148;32;33698;-88
2023/08/19 06:44:31;;;;;;;20.33;18.12;;;;;;;23.96;69.24;99542.69;4403633;32;32970;-88
2023/08/19 06:47:00;;;;;;;24.08;18.80;;;;;;;23.89;69.87;99543.81;4415349;32;32422;-86
2023/08/19 06:49:28;;;;;;;25.15;19.87;;;;;;;23.88;70.29;99538.59;4404718;32;34460;-87
2023/08/19 06:51:56;;;;;;;19.85;16.80;;;;;;;23.91;71.49;99534.06;4404295;32;33583;-87
2023/08/19 06:54:24;;;;;;;15.75;12.23;;;;;;;23.64;71.61;99551.75;4402478;32;33553;-85
2023/08/19 06:57:06;;;;;;;18.20;12.73;;;;;;;22.71;73.62;99574.09;4397749;32;34416;-92
2023/08/19 06:59:38;;;;;;;16.67;10.40;;;;;;;22.90;73.52;99566.47;4399162;32;34685;-86
2023/08/19 07:02:10;;;;;;;11.85;8.77;;;;;;;22.43;73.98;99566.16;4388881;32;33953;-87
2023/08/19 07:04:38;;;;;;;12.82;8.70;;;;;;;22.22;74.66;99572.91;4402770;32;33635;-90
2023/08/19 07:07:08;;;;;;;9.10;7.30;;;;;;;22.41;73.51;99560.03;4406751;32;32938;-86
2023/08/19 07:09:36;;;;;;;11.98;6.57;;;;;;;22.12;74.32;99568.75;4419105;32;34837;-86
2023/08/19 07:12:04;;;;;;;9.25;6.07;;;;;;;22.26;72.58;99581.59;4416169;32;33456;-87
2023/08/19 07:14:34;;;;;;;8.23;6.68;;;;;;;22.21;73.05;99579.09;4407225;32;33332;-86
2023/08/19 07:17:04;;;;;;;9.70;5.93;;;;;;;22.38;73.12;99580.38;4406012;32;34063;-92
2023/08/19 07:19:38;;;;;;;8.82;6.03;;;;;;;22.57;71.96;99579.78;4407788;32;34161;-91
2023/08/19 07:22:07;;;;;;;9.77;6.37;;;;;;;23.08;71.12;99593.31;4406943;32;33692;-87
2023/08/19 07:24:35;;;;;;;9.57;6.57;;;;;;;23.15;71.17;99600.13;4406575;32;33063;-85
2023/08/19 07:27:04;;;;;;;9.07;6.45;;;;;;;23.08;70.70;99602.09;4393108;32;33303;-87
2023/08/19 07:29:32;;;;;;;10.73;7.45;;;;;;;22.86;71.55;99615.06;4393306;32;34760;-87
2023/08/19 07:32:01;;;;;;;12.15;7.43;;;;;;;22.85;71.56;99615.13;4415540;32;34862;-88
2023/08/19 07:34:29;;;;;;;10.75;7.70;;;;;;;23.18;70.97;99606.16;4390751;32;33386;-91
2023/08/19 07:36:56;;;;;;;10.23;7.28;;;;;;;23.10;71.74;99602.91;4402712;32;34679;-90
2023/08/19 07:39:25;;;;;;;10.73;7.10;;;;;;;23.39;70.89;99609.06;4408648;32;33058;-84
2023/08/19 07:41:53;;;;;;;12.43;7.05;;;;;;;23.51;70.33;99598.06;4405626;32;32733;-93
2023/08/19 07:44:21;;;;;;;13.75;7.25;;;;;;;23.41;70.39;99584.28;4406115;32;33058;-92
2023/08/19 07:46:49;;;;;;;9.30;6.60;;;;;;;23.24;71.13;99584.81;4406138;32;33164;-96
2023/08/19 07:49:16;;;;;;;15.02;8.15;;;;;;;23.33;70.99;99577.50;4402498;32;33834;-94
2023/08/19 07:51:45;;;;;;;10.55;6.87;;;;;;;23.41;70.73;99570.16;4417877;32;34416;-90
2023/08/19 07:54:14;;;;;;;10.23;7.18;;;;;;;23.29;71.13;99574.94;4398384;32;32968;-84
2023/08/19 07:56:42;;;;;;;10.85;6.82;;;;;;;23.17;71.31;99570.06;4393332;32;33963;-95
2023/08/19 07:59:10;;;;;;;10.68;7.20;;;;;;;23.33;70.96;99578.34;4366265;32;34062;-94
2023/08/19 08:01:37;;;;;;;9.75;7.22;;;;;;;23.50;70.57;99583.09;4395667;32;33589;-93
2023/08/19 08:04:06;;;;;;;11.30;7.03;;;;;;;23.24;71.62;99574.22;4401226;32;34158;-88
2023/08/19 08:06:33;;;;;;;8.35;6.90;;;;;;;23.19;71.68;99577.97;4404004;32;33281;-93
2023/08/19 08:09:02;;;;;;;11.55;7.68;;;;;;;23.33;71.33;99561.63;4390364;32;32783;-87
2023/08/19 08:11:29;;;;;;;13.60;7.97;;;;;;;23.46;70.92;99562.94;4377893;32;34571;-93
2023/08/19 08:13:57;;;;;;;8.70;7.65;;;;;;;23.68;70.09;99548.09;4391789;32;34472;-89
2023/08/19 08:16:24;;;;;;;12.18;7.07;;;;;;;23.70;70.15;99540.97;4386889;32;34121;-93
2023/08/19 08:18:53;;;;;;;13.25;7.82;;;;;;;23.55;70.54;99537.03;4390514;32;34332;-85
2023/08/19 08:21:20;;;;;;;9.77;7.20;;;;;;;23.25;71.11;99538.06;4377954;32;33148;-94
2023/08/19 08:23:49;;;;;;;10.90;7.22;;;;;;;23.29;70.81;99537.03;4403938;32;32627;-93
2023/08/19 08:26:40;;;;;;;9.35;7.03;;;;;;;23.20;71.61;99534.72;4394512;32;34628;-92
2023/08/19 08:29:18;;;;;;;10.57;8.35;;;;;;;22.85;73.11;99527.91;4393394;32;33013;-94
2023/08/19 08:31:46;;;;;;;13.85;9.70;;;;;;;22.83;73.71;99518.22;4405078;32;34067;-93
2023/08/19 08:34:15;;;;;;;14.87;10.38;;;;;;;22.81;73.70;99508.63;4390400;32;33185;-93
2023/08/19 08:36:50;;;;;;;14.07;10.85;;;;;;;22.71;74.54;99505.37;4378143;32;32613;-94
2023/08/19 08:39:18;;;;;;;15.90;12.40;;;;;;;22.53;75.67;99500.66;4365555;32;33219;-93
2023/08/19 08:41:46;;;;;;;16.85;12.88;;;;;;;22.47;76.15;99488.53;4390512;32;33498;-92
2023/08/19 08:44:20;;;;;;;14.00;11.77;;;;;;;22.28;77.37;99495.28;4377943;32;32295;-93
2023/08/19 08:46:49;;;;;;;13.40;11.55;;;;;;;22.51;76.74;99476.94;4399256;32;34169;-94
2023/08/19 08:49:17;;;;;;;13.70;12.00;;;;;;;22.46;77.42;99473.56;4417835;32;34975;-93
2023/08/19 08:51:45;;;;;;;17.70;12.43;;;;;;;22.60;76.71;99475.78;4418187;32;33811;-92
2023/08/19 08:54:13;;;;;;;16.10;11.88;;;;;;;22.61;77.01;99472.22;4393191;32;34346;-93
2023/08/19 08:56:46;;;;;;;11.98;10.55;;;;;;;22.43;78.15;99462.25;4405584;32;33287;-91
2023/08/19 08:59:16;;;;;;;13.35;10.73;;;;;;;22.75;76.34;99459.44;4417942;32;34690;-93
2023/08/19 09:01:45;;;;;;;14.00;10.85;;;;;;;22.57;76.35;99444.16;4392533;32;34087;-92
2023/08/19 09:04:22;;;;;;;14.63;10.77;;;;;;;22.67;76.66;99450.91;4393836;32;34439;-92
2023/08/19 09:06:54;;;;;;;13.90;10.07;;;;;;;22.77;76.20;99451.47;4405884;32;34607;-94
2023/08/19 09:09:28;;;;;;;12.45;10.30;;;;;;;22.93;75.43;99457.16;4393191;32;33007;-93
2023/08/19 09:12:10;;;;;;;13.13;10.93;;;;;;;22.86;75.77;99450.31;4405143;32;33884;-91
2023/08/19 09:14:51;;;;;;;13.02;10.18;;;;;;;22.72;77.31;99448.97;4405532;32;33576;-92
2023/08/19 09:17:19;;;;;;;14.15;10.82;;;;;;;22.55;76.97;99440.72;4405503;32;33882;-91
2023/08/19 09:19:47;;;;;;;12.95;10.15;;;;;;;22.81;76.61;99442.53;4380587;32;34507;-91
2023/08/19 09:22:21;;;;;;;14.02;10.57;;;;;;;22.99;75.93;99441.94;4404918;32;32920;-93
2023/08/19 09:24:49;;;;;;;13.07;9.48;;;;;;;22.59;78.09;99442.34;4405024;32;32139;-91
2023/08/19 09:27:25;;;;;;;11.82;9.55;;;;;;;22.92;76.11;99444.81;4379803;32;33217;-90
2023/08/19 09:29:53;;;;;;;12.23;9.40;;;;;;;22.97;76.75;99437.63;4392692;32;33223;-92
2023/08/19 09:32:31;;;;;;;11.90;8.85;;;;;;;23.12;76.15;99445.03;4405112;32;34497;-93
2023/08/19 09:35:14;;;;;;;12.52;9.45;;;;;;;23.15;75.25;99438.78;4404630;32;32572;-91
2023/08/19 09:37:42;;;;;;;15.52;9.73;;;;;;;23.17;75.73;99443.09;4392083;32;34619;-91
2023/08/19 09:40:13;;;;;;;10.70;9.23;;;;;;;23.31;75.22;99437.34;4377823;32;33611;-92
2023/08/19 09:42:47;;;;;;;11.70;9.20;;;;;;;23.32;75.51;99447.00;4365764;32;33636;-92
2023/08/19 09:45:18;;;;;;;14.10;10.25;;;;;;;23.56;73.87;99445.25;4392809;32;33281;-90
2023/08/19 09:47:47;;;;;;;10.45;9.15;;;;;;;23.41;75.12;99445.81;4391974;32;32074;-90
2023/08/19 09:50:17;;;;;;;11.25;8.30;;;;;;;23.27;75.23;99449.81;4379689;32;33116;-89
2023/08/19 09:52:57;;;;;;;11.15;8.85;;;;;;;23.42;75.09;99452.84;4380751;32;33925;-88
2023/08/19 09:55:29;;;;;;;9.88;8.30;;;;;;;23.60;73.34;99457.50;4379327;32;32494;-90
2023/08/19 09:57:58;;;;;;;14.43;9.20;;;;;;;23.68;73.66;99466.03;4404423;32;34665;-92
2023/08/19 10:00:26;;;;;;;11.65;8.73;;;;;;;23.68;73.10;99455.47;4404955;32;34822;-88
2023/08/19 10:02:54;;;;;;;10.98;8.45;;;;;;;23.84;73.05;99454.91;4404571;32;33583;-88
2023/08/19 10:05:23;;;;;;;14.25;10.18;;;;;;;23.88;72.53;99459.16;4391875;32;33403;-88
2023/08/19 10:07:56;;;;;;;11.98;9.80;;;;;;;23.66;74.02;99446.69;4391929;32;33890;-88
2023/08/19 10:10:29;;;;;;;13.47;10.20;;;;;;;23.71;73.98;99455.31;4391886;32;32870;-90
2023/08/19 10:12:57;;;;;;;12.63;11.02;;;;;;;23.76;74.07;99456.03;4404166;32;33518;-88
2023/08/19 10:15:26;;;;;;;16.08;11.05;;;;;;;23.83;74.59;99467.28;4392144;32;33471;-88
2023/08/19 10:17:57;;;;;;;13.95;10.88;;;;;;;23.85;75.20;99451.31;4404366;32;34394;-90
2023/08/19 10:20:26;;;;;;;15.18;10.90;;;;;;;23.95;74.98;99460.66;4391775;32;33167;-89
2023/08/19 10:22:57;;;;;;;11.82;9.20;;;;;;;24.19;73.66;99459.72;4391779;32;32757;-91
2023/08/19 10:25:25;;;;;;;10.52;9.43;;;;;;;24.21;73.38;99457.88;4379373;32;32342;-89
2023/08/19 10:28:13;;;;;;;16.85;9.95;;;;;;;24.06;73.06;99462.91;4391583;32;33540;-87
2023/08/19 10:30:42;;;;;;;10.95;9.85;;;;;;;24.25;71.52;99462.16;4403975;32;34196;-88
2023/08/19 10:33:28;;;;;;;12.55;10.13;;;;;;;24.20;72.90;99463.22;4392822;32;32808;-91
2023/08/19 10:35:59;;;;;;;13.52;11.35;;;;;;;23.99;73.93;99465.78;4391660;32;32075;-89
2023/08/19 10:38:40;;;;;;;14.00;11.52;;;;;;;24.22;74.17;99464.91;4392697;32;34743;-92
2023/08/19 10:41:30;;;;;;;14.45;11.65;;;;;;;24.20;74.04;99461.44;4405314;32;33737;-90
2023/08/19 10:43:59;;;;;;;15.00;11.05;;;;;;;24.20;74.62;99461.44;4403919;32;33702;-94
2023/08/19 10:46:32;;;;;;;13.23;10.98;;;;;;;24.49;72.32;99451.53;4403684;32;34500;-89
2023/08/19 10:49:02;;;;;;;12.73;10.35;;;;;;;24.18;75.35;99458.00;4393274;32;33122;-91
2023/08/19 10:51:53;;;;;;;14.20;11.85;;;;;;;24.49;72.91;99456.84;4393734;32;34604;-88
2023/08/19 10:54:29;;;;;;;12.85;11.40;;;;;;;24.56;73.89;99454.81;4405529;32;33124;-91
2023/08/19 10:57:10;;;;;;;11.18;9.27;;;;;;;24.60;71.86;99454.63;4405491;32;33392;-87
2023/08/19 10:59:42;;;;;;;12.50;8.05;;;;;;;24.82;70.68;99451.13;4393600;32;32662;-88
2023/08/19 11:02:12;;;;;;;12.55;9.95;;;;;;;24.95;69.80;99449.66;4418444;32;33695;-93
2023/08/19 11:04:50;;;;;;;12.15;9.73;;;;;;;24.87;73.77;99449.12;4405897;32;33731;-91
2023/08/19 11:07:19;;;;;;;13.20;9.45;;;;;;;24.58;74.88;99452.94;4393632;32;33569;-92
2023/08/19 11:09:48;;;;;;;11.05;9.65;;;;;;;24.75;74.11;99454.00;4405089;32;34804;-92
2023/08/19 11:12:18;;;;;;;11.55;8.82;;;;;;;24.94;75.02;99454.13;4405606;32;33275;-93
2023/08/19 11:14:47;;;;;;;10.40;8.13;;;;;;;25.25;72.98;99447.53;4394599;32;34136;-93
2023/08/19 11:17:16;;;;;;;10.02;7.05;;;;;;;25.64;72.29;99444.06;4393486;32;32287;-87
2023/08/19 11:19:46;;;;;;;9.82;6.25;;;;;;;25.83;70.53;99438.84;4393309;32;33195;-88
2023/08/19 11:22:15;;;;;;;9.00;6.95;;;;;;;26.43;63.79;99439.56;4393033;32;33408;-86
2023/08/19 11:24:43;;;;;;;9.40;6.87;;;;;;;26.28;63.54;99432.31;4392634;32;33261;-86
2023/08/19 11:27:10;;;;;;;9.05;6.90;;;;;;;26.28;67.02;99434.97;4392500;32;32392;-86
2023/08/19 11:29:38;;;;;;;12.80;7.32;;;;;;;26.48;67.70;99431.38;4392571;32;32735;-86
2023/08/19 11:32:06;;;;;;;11.77;7.85;;;;;;;26.43;69.57;99437.75;4392573;32;33320;-86
2023/08/19 11:34:34;;;;;;;9.23;6.87;;;;;;;26.41;70.31;99430.81;4406379;32;33550;-86